sensor_id;sensor_type;location;lat;lon;timestamp;P1;durP1;ratioP1;P2;durP2;ratioP2
47429;SDS011;33181;49.246;7.372;2023-08-06T00:00:26;6.27;;;4.03;;
47429;SDS011;33181;49.246;7.372;2023-08-06T00:02:52;8.37;;;4.10;;
47429;SDS011;33181;49.246;7.372;2023-08-06T00:05:18;11.57;;;4.23;;
47429;SDS011;33181;49.246;7.372;2023-08-06T00:07:45;6.40;;;3.80;;
47429;SDS011;33181;49.246;7.372;2023-08-06T00:10:15;5.90;;;3.90;;
47429;SDS011;33181;49.246;7.372;2023-08-06T00:12:42;4.53;;;3.43;;
47429;SDS011;33181;49.246;7.372;2023-08-06T00:15:09;11.37;;;4.67;;
47429;SDS011;33181;49.246;7.372;2023-08-06T00:17:36;8.10;;;3.90;;
47429;SDS011;33181;49.246;7.372;2023-08-06T00:20:03;5.37;;;3.53;;
47429;SDS011;33181;49.246;7.372;2023-08-06T00:22:34;5.90;;;3.53;;
47429;SDS011;33181;49.246;7.372;2023-08-06T00:25:02;5.83;;;3.63;;
47429;SDS011;33181;49.246;7.372;2023-08-06T00:27:29;5.90;;;4.00;;
47429;SDS011;33181;49.246;7.372;2023-08-06T00:29:55;6.27;;;3.83;;
47429;SDS011;33181;49.246;7.372;2023-08-06T00:32:20;6.00;;;3.23;;
47429;SDS011;33181;49.246;7.372;2023-08-06T00:34:47;6.47;;;4.17;;
47429;SDS011;33181;49.246;7.372;2023-08-06T00:37:14;5.83;;;3.73;;
47429;SDS011;33181;49.246;7.372;2023-08-06T00:39:43;5.80;;;3.70;;
47429;SDS011;33181;49.246;7.372;2023-08-06T00:42:10;6.73;;;3.80;;
47429;SDS011;33181;49.246;7.372;2023-08-06T00:44:37;8.00;;;3.10;;
47429;SDS011;33181;49.246;7.372;2023-08-06T00:47:03;6.83;;;3.67;;
47429;SDS011;33181;49.246;7.372;2023-08-06T00:49:30;6.10;;;3.67;;
47429;SDS011;33181;49.246;7.372;2023-08-06T00:51:56;7.63;;;4.03;;
47429;SDS011;33181;49.246;7.372;2023-08-06T00:54:22;5.43;;;3.50;;
47429;SDS011;33181;49.246;7.372;2023-08-06T00:56:49;4.23;;;3.13;;
47429;SDS011;33181;49.246;7.372;2023-08-06T00:59:15;5.47;;;3.40;;
47429;SDS011;33181;49.246;7.372;2023-08-06T01:01:42;5.53;;;3.40;;
47429;SDS011;33181;49.246;7.372;2023-08-06T01:04:09;8.17;;;3.90;;
47429;SDS011;33181;49.246;7.372;2023-08-06T01:06:43;5.70;;;3.93;;
47429;SDS011;33181;49.246;7.372;2023-08-06T01:14:45;8.47;;;3.87;;
47429;SDS011;33181;49.246;7.372;2023-08-06T01:17:40;6.10;;;3.40;;
47429;SDS011;33181;49.246;7.372;2023-08-06T01:20:07;5.67;;;3.30;;
47429;SDS011;33181;49.246;7.372;2023-08-06T01:22:33;4.87;;;3.53;;
47429;SDS011;33181;49.246;7.372;2023-08-06T01:24:59;7.17;;;3.80;;
47429;SDS011;33181;49.246;7.372;2023-08-06T01:27:30;5.73;;;3.57;;
47429;SDS011;33181;49.246;7.372;2023-08-06T01:30:25;5.37;;;3.63;;
47429;SDS011;33181;49.246;7.372;2023-08-06T01:32:53;4.90;;;3.17;;
47429;SDS011;33181;49.246;7.372;2023-08-06T01:35:25;5.30;;;3.50;;
47429;SDS011;33181;49.246;7.372;2023-08-06T01:37:54;5.20;;;3.60;;
47429;SDS011;33181;49.246;7.372;2023-08-06T01:40:21;5.63;;;3.40;;
47429;SDS011;33181;49.246;7.372;2023-08-06T01:42:47;7.67;;;3.90;;
47429;SDS011;33181;49.246;7.372;2023-08-06T01:45:12;6.43;;;3.47;;
47429;SDS011;33181;49.246;7.372;2023-08-06T01:47:38;6.67;;;3.33;;
47429;SDS011;33181;49.246;7.372;2023-08-06T01:50:04;6.60;;;3.50;;
47429;SDS011;33181;49.246;7.372;2023-08-06T01:52:31;5.20;;;3.60;;
47429;SDS011;33181;49.246;7.372;2023-08-06T01:54:56;6.40;;;3.47;;
47429;SDS011;33181;49.246;7.372;2023-08-06T01:57:22;7.43;;;3.40;;
47429;SDS011;33181;49.246;7.372;2023-08-06T01:59:48;5.80;;;3.10;;
47429;SDS011;33181;49.246;7.372;2023-08-06T02:02:14;8.20;;;3.40;;
47429;SDS011;33181;49.246;7.372;2023-08-06T02:04:39;7.60;;;3.00;;
47429;SDS011;33181;49.246;7.372;2023-08-06T02:07:05;7.10;;;2.70;;
47429;SDS011;33181;49.246;7.372;2023-08-06T02:09:31;6.13;;;2.40;;
47429;SDS011;33181;49.246;7.372;2023-08-06T02:11:57;4.40;;;2.20;;
47429;SDS011;33181;49.246;7.372;2023-08-06T02:14:23;4.30;;;2.20;;
47429;SDS011;33181;49.246;7.372;2023-08-06T02:16:48;5.40;;;2.60;;
47429;SDS011;33181;49.246;7.372;2023-08-06T02:19:15;3.47;;;2.27;;
47429;SDS011;33181;49.246;7.372;2023-08-06T02:21:41;4.77;;;2.10;;
47429;SDS011;33181;49.246;7.372;2023-08-06T02:24:06;6.10;;;2.30;;
47429;SDS011;33181;49.246;7.372;2023-08-06T02:26:32;5.33;;;2.30;;
47429;SDS011;33181;49.246;7.372;2023-08-06T02:28:58;7.30;;;2.50;;
47429;SDS011;33181;49.246;7.372;2023-08-06T02:31:24;6.90;;;2.20;;
47429;SDS011;33181;49.246;7.372;2023-08-06T02:33:49;3.87;;;2.17;;
47429;SDS011;33181;49.246;7.372;2023-08-06T02:36:15;4.83;;;2.17;;
47429;SDS011;33181;49.246;7.372;2023-08-06T02:38:41;10.63;;;2.67;;
47429;SDS011;33181;49.246;7.372;2023-08-06T02:41:06;4.50;;;2.63;;
47429;SDS011;33181;49.246;7.372;2023-08-06T02:43:32;3.33;;;2.10;;
47429;SDS011;33181;49.246;7.372;2023-08-06T02:45:58;4.30;;;2.20;;
47429;SDS011;33181;49.246;7.372;2023-08-06T02:48:25;4.43;;;2.30;;
47429;SDS011;33181;49.246;7.372;2023-08-06T02:50:50;4.87;;;2.30;;
47429;SDS011;33181;49.246;7.372;2023-08-06T02:53:16;4.43;;;2.37;;
47429;SDS011;33181;49.246;7.372;2023-08-06T02:55:46;8.13;;;2.20;;
47429;SDS011;33181;49.246;7.372;2023-08-06T02:58:13;6.67;;;2.27;;
47429;SDS011;33181;49.246;7.372;2023-08-06T03:00:40;6.27;;;2.00;;
47429;SDS011;33181;49.246;7.372;2023-08-06T03:03:06;6.73;;;2.50;;
47429;SDS011;33181;49.246;7.372;2023-08-06T03:05:32;3.60;;;1.93;;
47429;SDS011;33181;49.246;7.372;2023-08-06T03:07:57;5.27;;;2.30;;
47429;SDS011;33181;49.246;7.372;2023-08-06T03:10:23;4.10;;;2.10;;
47429;SDS011;33181;49.246;7.372;2023-08-06T03:12:49;3.93;;;2.10;;
47429;SDS011;33181;49.246;7.372;2023-08-06T03:15:15;4.07;;;2.50;;
47429;SDS011;33181;49.246;7.372;2023-08-06T03:17:40;5.50;;;2.13;;
47429;SDS011;33181;49.246;7.372;2023-08-06T03:20:06;3.80;;;2.00;;
47429;SDS011;33181;49.246;7.372;2023-08-06T03:22:33;4.53;;;2.20;;
47429;SDS011;33181;49.246;7.372;2023-08-06T03:24:58;4.63;;;2.10;;
47429;SDS011;33181;49.246;7.372;2023-08-06T03:27:24;3.70;;;1.67;;
47429;SDS011;33181;49.246;7.372;2023-08-06T03:29:50;2.53;;;1.63;;
47429;SDS011;33181;49.246;7.372;2023-08-06T03:32:16;4.10;;;1.90;;
47429;SDS011;33181;49.246;7.372;2023-08-06T03:34:42;4.10;;;2.17;;
47429;SDS011;33181;49.246;7.372;2023-08-06T03:37:08;3.40;;;2.03;;
47429;SDS011;33181;49.246;7.372;2023-08-06T03:39:33;3.27;;;2.03;;
47429;SDS011;33181;49.246;7.372;2023-08-06T03:41:59;6.93;;;2.20;;
47429;SDS011;33181;49.246;7.372;2023-08-06T03:44:25;7.53;;;2.20;;
47429;SDS011;33181;49.246;7.372;2023-08-06T03:46:52;4.77;;;2.10;;
47429;SDS011;33181;49.246;7.372;2023-08-06T03:49:18;5.00;;;2.30;;
47429;SDS011;33181;49.246;7.372;2023-08-06T03:51:43;5.83;;;2.10;;
47429;SDS011;33181;49.246;7.372;2023-08-06T03:54:09;4.00;;;2.10;;
47429;SDS011;33181;49.246;7.372;2023-08-06T03:56:35;3.27;;;2.10;;
47429;SDS011;33181;49.246;7.372;2023-08-06T03:59:01;4.23;;;2.20;;
47429;SDS011;33181;49.246;7.372;2023-08-06T04:01:26;5.20;;;2.17;;
47429;SDS011;33181;49.246;7.372;2023-08-06T04:03:52;6.00;;;2.53;;
47429;SDS011;33181;49.246;7.372;2023-08-06T04:06:18;6.43;;;2.30;;
47429;SDS011;33181;49.246;7.372;2023-08-06T04:08:44;6.13;;;2.03;;
47429;SDS011;33181;49.246;7.372;2023-08-06T04:11:09;4.60;;;2.10;;
47429;SDS011;33181;49.246;7.372;2023-08-06T04:13:35;4.80;;;2.10;;
47429;SDS011;33181;49.246;7.372;2023-08-06T04:16:01;3.10;;;1.93;;
47429;SDS011;33181;49.246;7.372;2023-08-06T04:18:28;4.70;;;2.27;;
47429;SDS011;33181;49.246;7.372;2023-08-06T04:20:53;3.67;;;1.90;;
47429;SDS011;33181;49.246;7.372;2023-08-06T04:23:20;4.63;;;1.87;;
47429;SDS011;33181;49.246;7.372;2023-08-06T04:25:46;3.63;;;1.70;;
47429;SDS011;33181;49.246;7.372;2023-08-06T04:28:11;4.23;;;1.60;;
47429;SDS011;33181;49.246;7.372;2023-08-06T04:30:39;3.80;;;1.77;;
47429;SDS011;33181;49.246;7.372;2023-08-06T04:33:05;3.87;;;1.83;;
47429;SDS011;33181;49.246;7.372;2023-08-06T04:35:31;3.93;;;1.90;;
47429;SDS011;33181;49.246;7.372;2023-08-06T04:37:56;4.00;;;2.07;;
47429;SDS011;33181;49.246;7.372;2023-08-06T04:40:24;3.60;;;2.03;;
47429;SDS011;33181;49.246;7.372;2023-08-06T04:42:50;5.10;;;2.00;;
47429;SDS011;33181;49.246;7.372;2023-08-06T04:45:18;3.83;;;2.00;;
47429;SDS011;33181;49.246;7.372;2023-08-06T04:47:44;7.27;;;1.97;;
47429;SDS011;33181;49.246;7.372;2023-08-06T04:50:09;4.63;;;1.80;;
47429;SDS011;33181;49.246;7.372;2023-08-06T04:52:35;7.17;;;1.90;;
47429;SDS011;33181;49.246;7.372;2023-08-06T04:55:02;4.70;;;1.80;;
47429;SDS011;33181;49.246;7.372;2023-08-06T04:57:31;3.13;;;2.00;;
47429;SDS011;33181;49.246;7.372;2023-08-06T04:59:56;4.27;;;1.90;;
47429;SDS011;33181;49.246;7.372;2023-08-06T05:02:22;3.63;;;2.00;;
47429;SDS011;33181;49.246;7.372;2023-08-06T05:04:48;3.70;;;2.00;;
47429;SDS011;33181;49.246;7.372;2023-08-06T05:07:16;3.43;;;1.93;;
47429;SDS011;33181;49.246;7.372;2023-08-06T05:09:41;5.47;;;2.17;;
47429;SDS011;33181;49.246;7.372;2023-08-06T05:12:07;4.97;;;2.00;;
47429;SDS011;33181;49.246;7.372;2023-08-06T05:14:33;4.60;;;2.13;;
47429;SDS011;33181;49.246;7.372;2023-08-06T05:16:59;3.33;;;1.90;;
47429;SDS011;33181;49.246;7.372;2023-08-06T05:19:27;3.97;;;1.80;;
47429;SDS011;33181;49.246;7.372;2023-08-06T05:21:52;3.30;;;1.93;;
47429;SDS011;33181;49.246;7.372;2023-08-06T05:24:18;4.90;;;1.77;;
47429;SDS011;33181;49.246;7.372;2023-08-06T05:26:44;3.63;;;1.90;;
47429;SDS011;33181;49.246;7.372;2023-08-06T05:29:11;3.73;;;1.70;;
47429;SDS011;33181;49.246;7.372;2023-08-06T05:31:37;2.53;;;1.70;;
47429;SDS011;33181;49.246;7.372;2023-08-06T05:34:03;3.53;;;2.10;;
47429;SDS011;33181;49.246;7.372;2023-08-06T05:36:29;3.70;;;1.70;;
47429;SDS011;33181;49.246;7.372;2023-08-06T05:38:54;3.07;;;1.50;;
47429;SDS011;33181;49.246;7.372;2023-08-06T05:41:20;3.43;;;1.70;;
47429;SDS011;33181;49.246;7.372;2023-08-06T05:43:46;3.00;;;1.87;;
47429;SDS011;33181;49.246;7.372;2023-08-06T05:46:11;4.43;;;1.87;;
47429;SDS011;33181;49.246;7.372;2023-08-06T05:48:40;2.60;;;1.70;;
47429;SDS011;33181;49.246;7.372;2023-08-06T05:51:05;4.80;;;1.70;;
47429;SDS011;33181;49.246;7.372;2023-08-06T05:53:31;2.50;;;1.60;;
47429;SDS011;33181;49.246;7.372;2023-08-06T05:55:57;3.00;;;1.60;;
47429;SDS011;33181;49.246;7.372;2023-08-06T05:58:23;2.97;;;1.60;;
47429;SDS011;33181;49.246;7.372;2023-08-06T06:00:51;2.63;;;1.47;;
47429;SDS011;33181;49.246;7.372;2023-08-06T06:03:17;2.73;;;1.57;;
47429;SDS011;33181;49.246;7.372;2023-08-06T06:05:42;2.87;;;1.70;;
47429;SDS011;33181;49.246;7.372;2023-08-06T06:08:09;2.70;;;1.60;;
47429;SDS011;33181;49.246;7.372;2023-08-06T06:10:35;4.80;;;1.80;;
47429;SDS011;33181;49.246;7.372;2023-08-06T06:13:01;2.40;;;1.60;;
47429;SDS011;33181;49.246;7.372;2023-08-06T06:15:27;2.17;;;1.53;;
47429;SDS011;33181;49.246;7.372;2023-08-06T06:17:53;3.23;;;1.60;;
47429;SDS011;33181;49.246;7.372;2023-08-06T06:20:19;2.30;;;1.53;;
47429;SDS011;33181;49.246;7.372;2023-08-06T06:22:44;2.47;;;1.47;;
47429;SDS011;33181;49.246;7.372;2023-08-06T06:25:10;2.63;;;1.60;;
47429;SDS011;33181;49.246;7.372;2023-08-06T06:27:36;2.60;;;1.50;;
47429;SDS011;33181;49.246;7.372;2023-08-06T06:30:01;2.40;;;1.70;;
47429;SDS011;33181;49.246;7.372;2023-08-06T06:32:29;2.40;;;1.40;;
47429;SDS011;33181;49.246;7.372;2023-08-06T06:34:54;2.00;;;1.40;;
47429;SDS011;33181;49.246;7.372;2023-08-06T06:37:20;5.00;;;1.60;;
47429;SDS011;33181;49.246;7.372;2023-08-06T06:39:46;2.57;;;1.60;;
47429;SDS011;33181;49.246;7.372;2023-08-06T06:42:12;2.97;;;1.50;;
47429;SDS011;33181;49.246;7.372;2023-08-06T06:44:40;2.40;;;1.40;;
47429;SDS011;33181;49.246;7.372;2023-08-06T06:47:05;2.30;;;1.70;;
47429;SDS011;33181;49.246;7.372;2023-08-06T06:49:31;2.60;;;1.60;;
47429;SDS011;33181;49.246;7.372;2023-08-06T06:51:57;2.40;;;1.63;;
47429;SDS011;33181;49.246;7.372;2023-08-06T06:54:22;3.03;;;1.60;;
47429;SDS011;33181;49.246;7.372;2023-08-06T06:56:48;3.30;;;1.63;;
47429;SDS011;33181;49.246;7.372;2023-08-06T06:59:14;2.27;;;1.60;;
47429;SDS011;33181;49.246;7.372;2023-08-06T07:01:40;2.50;;;1.57;;
47429;SDS011;33181;49.246;7.372;2023-08-06T07:04:06;2.63;;;1.60;;
47429;SDS011;33181;49.246;7.372;2023-08-06T07:06:31;3.50;;;1.60;;
47429;SDS011;33181;49.246;7.372;2023-08-06T07:08:57;2.60;;;1.70;;
47429;SDS011;33181;49.246;7.372;2023-08-06T07:11:23;2.57;;;1.60;;
47429;SDS011;33181;49.246;7.372;2023-08-06T07:13:49;4.77;;;1.70;;
47429;SDS011;33181;49.246;7.372;2023-08-06T07:16:21;2.87;;;1.50;;
47429;SDS011;33181;49.246;7.372;2023-08-06T07:18:47;3.97;;;1.57;;
47429;SDS011;33181;49.246;7.372;2023-08-06T07:21:12;1.90;;;1.27;;
47429;SDS011;33181;49.246;7.372;2023-08-06T07:23:41;2.07;;;1.43;;
47429;SDS011;33181;49.246;7.372;2023-08-06T07:26:07;2.40;;;1.40;;
47429;SDS011;33181;49.246;7.372;2023-08-06T07:28:34;2.57;;;1.50;;
47429;SDS011;33181;49.246;7.372;2023-08-06T07:31:00;2.93;;;1.37;;
47429;SDS011;33181;49.246;7.372;2023-08-06T07:33:27;2.10;;;1.53;;
47429;SDS011;33181;49.246;7.372;2023-08-06T07:35:53;2.10;;;1.60;;
47429;SDS011;33181;49.246;7.372;2023-08-06T07:38:19;2.30;;;1.60;;
47429;SDS011;33181;49.246;7.372;2023-08-06T07:40:45;3.40;;;1.50;;
47429;SDS011;33181;49.246;7.372;2023-08-06T07:43:10;2.90;;;1.40;;
47429;SDS011;33181;49.246;7.372;2023-08-06T07:45:38;2.37;;;1.70;;
47429;SDS011;33181;49.246;7.372;2023-08-06T07:48:04;2.20;;;1.53;;
47429;SDS011;33181;49.246;7.372;2023-08-06T07:50:30;2.33;;;1.73;;
47429;SDS011;33181;49.246;7.372;2023-08-06T07:52:56;2.57;;;1.70;;
47429;SDS011;33181;49.246;7.372;2023-08-06T07:55:25;2.13;;;1.60;;
47429;SDS011;33181;49.246;7.372;2023-08-06T07:57:50;3.17;;;1.80;;
47429;SDS011;33181;49.246;7.372;2023-08-06T08:00:17;3.33;;;1.70;;
47429;SDS011;33181;49.246;7.372;2023-08-06T08:02:44;2.20;;;1.47;;
47429;SDS011;33181;49.246;7.372;2023-08-06T08:05:11;2.10;;;1.43;;
47429;SDS011;33181;49.246;7.372;2023-08-06T08:07:36;2.07;;;1.30;;
47429;SDS011;33181;49.246;7.372;2023-08-06T08:10:02;1.90;;;1.40;;
47429;SDS011;33181;49.246;7.372;2023-08-06T08:12:30;1.90;;;1.30;;
47429;SDS011;33181;49.246;7.372;2023-08-06T08:14:56;2.90;;;1.50;;
47429;SDS011;33181;49.246;7.372;2023-08-06T08:17:21;2.93;;;1.50;;
47429;SDS011;33181;49.246;7.372;2023-08-06T08:19:47;2.50;;;1.53;;
47429;SDS011;33181;49.246;7.372;2023-08-06T08:22:13;2.30;;;1.40;;
47429;SDS011;33181;49.246;7.372;2023-08-06T08:24:39;1.90;;;1.30;;
47429;SDS011;33181;49.246;7.372;2023-08-06T08:27:05;2.13;;;1.40;;
47429;SDS011;33181;49.246;7.372;2023-08-06T08:29:31;1.90;;;1.30;;
47429;SDS011;33181;49.246;7.372;2023-08-06T08:31:57;2.10;;;1.40;;
47429;SDS011;33181;49.246;7.372;2023-08-06T08:34:23;2.00;;;1.50;;
47429;SDS011;33181;49.246;7.372;2023-08-06T08:36:49;2.23;;;1.50;;
47429;SDS011;33181;49.246;7.372;2023-08-06T08:39:15;2.03;;;1.50;;
47429;SDS011;33181;49.246;7.372;2023-08-06T08:41:40;3.80;;;1.70;;
47429;SDS011;33181;49.246;7.372;2023-08-06T08:44:08;2.57;;;1.50;;
47429;SDS011;33181;49.246;7.372;2023-08-06T08:46:35;2.80;;;1.70;;
47429;SDS011;33181;49.246;7.372;2023-08-06T08:49:05;4.17;;;2.20;;
47429;SDS011;33181;49.246;7.372;2023-08-06T08:51:31;2.63;;;1.80;;
47429;SDS011;33181;49.246;7.372;2023-08-06T08:54:00;3.30;;;1.70;;
47429;SDS011;33181;49.246;7.372;2023-08-06T08:56:28;2.40;;;1.73;;
47429;SDS011;33181;49.246;7.372;2023-08-06T08:58:54;2.97;;;1.93;;
47429;SDS011;33181;49.246;7.372;2023-08-06T09:01:21;2.53;;;1.70;;
47429;SDS011;33181;49.246;7.372;2023-08-06T09:03:47;3.97;;;1.90;;
47429;SDS011;33181;49.246;7.372;2023-08-06T09:06:13;2.37;;;1.80;;
47429;SDS011;33181;49.246;7.372;2023-08-06T09:08:47;2.80;;;1.80;;
47429;SDS011;33181;49.246;7.372;2023-08-06T09:11:35;3.57;;;1.90;;
47429;SDS011;33181;49.246;7.372;2023-08-06T09:14:09;2.73;;;1.80;;
47429;SDS011;33181;49.246;7.372;2023-08-06T09:16:36;3.10;;;2.20;;
47429;SDS011;33181;49.246;7.372;2023-08-06T09:19:09;4.30;;;2.57;;
47429;SDS011;33181;49.246;7.372;2023-08-06T09:21:40;3.27;;;2.30;;
47429;SDS011;33181;49.246;7.372;2023-08-06T09:24:08;6.13;;;2.67;;
47429;SDS011;33181;49.246;7.372;2023-08-06T09:26:36;4.60;;;2.63;;
47429;SDS011;33181;49.246;7.372;2023-08-06T09:29:06;3.03;;;2.40;;
47429;SDS011;33181;49.246;7.372;2023-08-06T09:34:17;4.10;;;2.97;;
47429;SDS011;33181;49.246;7.372;2023-08-06T09:36:48;5.30;;;2.97;;
47429;SDS011;33181;49.246;7.372;2023-08-06T09:39:16;3.87;;;2.83;;
47429;SDS011;33181;49.246;7.372;2023-08-06T09:41:44;3.50;;;2.80;;
47429;SDS011;33181;49.246;7.372;2023-08-06T09:44:19;4.40;;;3.20;;
47429;SDS011;33181;49.246;7.372;2023-08-06T09:46:49;4.33;;;3.07;;
47429;SDS011;33181;49.246;7.372;2023-08-06T09:49:26;6.97;;;3.30;;
47429;SDS011;33181;49.246;7.372;2023-08-06T09:51:59;4.77;;;2.80;;
47429;SDS011;33181;49.246;7.372;2023-08-06T09:54:25;4.97;;;3.00;;
47429;SDS011;33181;49.246;7.372;2023-08-06T09:56:55;7.53;;;3.67;;
47429;SDS011;33181;49.246;7.372;2023-08-06T09:59:22;6.50;;;3.17;;
47429;SDS011;33181;49.246;7.372;2023-08-06T10:01:49;6.53;;;3.20;;
47429;SDS011;33181;49.246;7.372;2023-08-06T10:04:15;4.37;;;3.13;;
47429;SDS011;33181;49.246;7.372;2023-08-06T10:06:42;4.50;;;3.17;;
47429;SDS011;33181;49.246;7.372;2023-08-06T10:09:11;5.20;;;3.50;;
47429;SDS011;33181;49.246;7.372;2023-08-06T10:11:36;4.77;;;3.00;;
47429;SDS011;33181;49.246;7.372;2023-08-06T10:14:06;4.53;;;3.30;;
47429;SDS011;33181;49.246;7.372;2023-08-06T10:16:55;3.83;;;2.90;;
47429;SDS011;33181;49.246;7.372;2023-08-06T10:19:23;4.03;;;3.03;;
47429;SDS011;33181;49.246;7.372;2023-08-06T10:22:24;4.67;;;3.20;;
47429;SDS011;33181;49.246;7.372;2023-08-06T10:24:50;4.27;;;3.10;;
47429;SDS011;33181;49.246;7.372;2023-08-06T10:27:40;4.70;;;3.03;;
47429;SDS011;33181;49.246;7.372;2023-08-06T10:30:22;5.10;;;2.83;;
47429;SDS011;33181;49.246;7.372;2023-08-06T10:33:02;3.60;;;2.80;;
47429;SDS011;33181;49.246;7.372;2023-08-06T10:38:12;4.90;;;3.30;;
47429;SDS011;33181;49.246;7.372;2023-08-06T10:40:43;6.33;;;3.00;;
47429;SDS011;33181;49.246;7.372;2023-08-06T10:46:03;8.00;;;3.27;;
47429;SDS011;33181;49.246;7.372;2023-08-06T10:48:35;4.90;;;3.00;;
47429;SDS011;33181;49.246;7.372;2023-08-06T10:51:03;5.07;;;3.20;;
47429;SDS011;33181;49.246;7.372;2023-08-06T10:53:33;5.70;;;3.10;;
47429;SDS011;33181;49.246;7.372;2023-08-06T10:55:59;5.20;;;3.30;;
47429;SDS011;33181;49.246;7.372;2023-08-06T10:58:30;8.40;;;3.57;;
47429;SDS011;33181;49.246;7.372;2023-08-06T11:00:59;6.53;;;3.23;;
47429;SDS011;33181;49.246;7.372;2023-08-06T11:03:26;5.80;;;3.80;;
47429;SDS011;33181;49.246;7.372;2023-08-06T11:05:53;4.90;;;3.30;;
47429;SDS011;33181;49.246;7.372;2023-08-06T11:08:28;4.60;;;3.50;;
47429;SDS011;33181;49.246;7.372;2023-08-06T11:11:13;6.43;;;4.10;;
47429;SDS011;33181;49.246;7.372;2023-08-06T11:13:44;5.67;;;3.57;;
47429;SDS011;33181;49.246;7.372;2023-08-06T11:16:12;7.60;;;4.80;;
47429;SDS011;33181;49.246;7.372;2023-08-06T11:18:45;6.10;;;3.70;;
47429;SDS011;33181;49.246;7.372;2023-08-06T11:21:12;6.80;;;3.90;;
47429;SDS011;33181;49.246;7.372;2023-08-06T11:23:38;8.43;;;4.00;;
47429;SDS011;33181;49.246;7.372;2023-08-06T11:26:05;5.63;;;3.90;;
47429;SDS011;33181;49.246;7.372;2023-08-06T11:28:32;7.03;;;3.63;;
47429;SDS011;33181;49.246;7.372;2023-08-06T11:30:58;7.03;;;3.50;;
47429;SDS011;33181;49.246;7.372;2023-08-06T11:33:27;6.10;;;3.40;;
47429;SDS011;33181;49.246;7.372;2023-08-06T11:35:57;6.20;;;3.27;;
47429;SDS011;33181;49.246;7.372;2023-08-06T11:38:33;5.50;;;3.53;;
47429;SDS011;33181;49.246;7.372;2023-08-06T11:40:59;7.20;;;2.90;;
47429;SDS011;33181;49.246;7.372;2023-08-06T11:43:25;6.20;;;3.00;;
47429;SDS011;33181;49.246;7.372;2023-08-06T11:45:51;8.33;;;2.60;;
47429;SDS011;33181;49.246;7.372;2023-08-06T11:48:20;6.23;;;2.40;;
47429;SDS011;33181;49.246;7.372;2023-08-06T11:50:46;4.50;;;2.50;;
47429;SDS011;33181;49.246;7.372;2023-08-06T11:53:12;4.17;;;2.00;;
47429;SDS011;33181;49.246;7.372;2023-08-06T11:55:39;3.97;;;2.30;;
47429;SDS011;33181;49.246;7.372;2023-08-06T11:58:06;6.10;;;2.00;;
47429;SDS011;33181;49.246;7.372;2023-08-06T12:00:32;3.00;;;2.00;;
47429;SDS011;33181;49.246;7.372;2023-08-06T12:02:58;3.00;;;1.93;;
47429;SDS011;33181;49.246;7.372;2023-08-06T12:05:29;3.43;;;2.10;;
47429;SDS011;33181;49.246;7.372;2023-08-06T12:07:56;3.37;;;1.90;;
47429;SDS011;33181;49.246;7.372;2023-08-06T12:10:25;3.43;;;1.70;;
47429;SDS011;33181;49.246;7.372;2023-08-06T12:12:52;3.03;;;2.00;;
47429;SDS011;33181;49.246;7.372;2023-08-06T12:15:19;2.80;;;1.93;;
47429;SDS011;33181;49.246;7.372;2023-08-06T12:17:45;3.90;;;2.17;;
47429;SDS011;33181;49.246;7.372;2023-08-06T12:20:11;3.63;;;2.33;;
47429;SDS011;33181;49.246;7.372;2023-08-06T12:22:37;3.37;;;2.10;;
47429;SDS011;33181;49.246;7.372;2023-08-06T12:25:09;2.67;;;2.00;;
47429;SDS011;33181;49.246;7.372;2023-08-06T12:27:38;3.60;;;2.20;;
47429;SDS011;33181;49.246;7.372;2023-08-06T12:30:09;3.50;;;2.10;;
47429;SDS011;33181;49.246;7.372;2023-08-06T12:32:36;3.03;;;2.30;;
47429;SDS011;33181;49.246;7.372;2023-08-06T12:35:03;3.67;;;2.20;;
47429;SDS011;33181;49.246;7.372;2023-08-06T12:37:29;3.20;;;2.30;;
47429;SDS011;33181;49.246;7.372;2023-08-06T12:39:55;2.40;;;1.80;;
47429;SDS011;33181;49.246;7.372;2023-08-06T12:42:21;2.90;;;2.10;;
47429;SDS011;33181;49.246;7.372;2023-08-06T12:44:50;3.67;;;2.20;;
47429;SDS011;33181;49.246;7.372;2023-08-06T12:47:19;3.00;;;2.10;;
47429;SDS011;33181;49.246;7.372;2023-08-06T12:49:45;4.90;;;2.00;;
47429;SDS011;33181;49.246;7.372;2023-08-06T12:52:11;2.70;;;2.00;;
47429;SDS011;33181;49.246;7.372;2023-08-06T12:54:40;4.00;;;2.30;;
47429;SDS011;33181;49.246;7.372;2023-08-06T12:57:06;4.30;;;2.33;;
47429;SDS011;33181;49.246;7.372;2023-08-06T12:59:32;7.87;;;2.90;;
47429;SDS011;33181;49.246;7.372;2023-08-06T13:01:59;5.80;;;3.37;;
47429;SDS011;33181;49.246;7.372;2023-08-06T13:04:25;4.70;;;3.10;;
47429;SDS011;33181;49.246;7.372;2023-08-06T13:06:51;4.53;;;3.03;;
47429;SDS011;33181;49.246;7.372;2023-08-06T13:09:17;5.30;;;2.83;;
47429;SDS011;33181;49.246;7.372;2023-08-06T13:11:44;3.73;;;2.60;;
47429;SDS011;33181;49.246;7.372;2023-08-06T13:14:12;4.87;;;2.90;;
47429;SDS011;33181;49.246;7.372;2023-08-06T13:16:40;4.53;;;2.43;;
47429;SDS011;33181;49.246;7.372;2023-08-06T13:19:08;3.17;;;2.13;;
47429;SDS011;33181;49.246;7.372;2023-08-06T13:24:05;3.83;;;2.60;;
47429;SDS011;33181;49.246;7.372;2023-08-06T13:26:31;3.60;;;2.70;;
47429;SDS011;33181;49.246;7.372;2023-08-06T13:28:57;4.77;;;2.70;;
47429;SDS011;33181;49.246;7.372;2023-08-06T13:31:24;4.20;;;2.60;;
47429;SDS011;33181;49.246;7.372;2023-08-06T13:33:56;4.07;;;2.90;;
47429;SDS011;33181;49.246;7.372;2023-08-06T13:36:26;4.10;;;2.87;;
47429;SDS011;33181;49.246;7.372;2023-08-06T13:38:52;3.93;;;2.53;;
47429;SDS011;33181;49.246;7.372;2023-08-06T13:41:17;14.13;;;2.50;;
47429;SDS011;33181;49.246;7.372;2023-08-06T13:43:44;2.90;;;2.10;;
47429;SDS011;33181;49.246;7.372;2023-08-06T13:46:10;3.77;;;2.20;;
47429;SDS011;33181;49.246;7.372;2023-08-06T13:48:40;3.97;;;2.60;;
47429;SDS011;33181;49.246;7.372;2023-08-06T13:51:10;6.50;;;2.17;;
47429;SDS011;33181;49.246;7.372;2023-08-06T13:53:37;2.93;;;2.00;;
47429;SDS011;33181;49.246;7.372;2023-08-06T13:56:04;5.67;;;2.07;;
47429;SDS011;33181;49.246;7.372;2023-08-06T13:58:31;3.33;;;2.17;;
47429;SDS011;33181;49.246;7.372;2023-08-06T14:00:57;3.50;;;2.17;;
47429;SDS011;33181;49.246;7.372;2023-08-06T14:03:23;3.00;;;2.03;;
47429;SDS011;33181;49.246;7.372;2023-08-06T14:05:49;3.33;;;2.30;;
47429;SDS011;33181;49.246;7.372;2023-08-06T14:08:16;5.57;;;2.37;;
47429;SDS011;33181;49.246;7.372;2023-08-06T14:10:44;2.93;;;2.03;;
47429;SDS011;33181;49.246;7.372;2023-08-06T14:13:10;3.13;;;1.90;;
47429;SDS011;33181;49.246;7.372;2023-08-06T14:15:36;4.63;;;2.00;;
47429;SDS011;33181;49.246;7.372;2023-08-06T14:18:04;3.47;;;2.00;;
47429;SDS011;33181;49.246;7.372;2023-08-06T14:20:33;3.90;;;2.00;;
47429;SDS011;33181;49.246;7.372;2023-08-06T14:22:59;2.73;;;1.70;;
47429;SDS011;33181;49.246;7.372;2023-08-06T14:25:25;3.40;;;2.13;;
47429;SDS011;33181;49.246;7.372;2023-08-06T14:27:51;2.93;;;1.83;;
47429;SDS011;33181;49.246;7.372;2023-08-06T14:30:17;2.60;;;1.83;;
47429;SDS011;33181;49.246;7.372;2023-08-06T14:32:43;2.90;;;2.10;;
47429;SDS011;33181;49.246;7.372;2023-08-06T14:35:09;4.27;;;1.80;;
47429;SDS011;33181;49.246;7.372;2023-08-06T14:37:34;3.83;;;2.17;;
47429;SDS011;33181;49.246;7.372;2023-08-06T14:40:00;4.00;;;2.40;;
47429;SDS011;33181;49.246;7.372;2023-08-06T14:42:27;3.83;;;2.00;;
47429;SDS011;33181;49.246;7.372;2023-08-06T14:44:53;3.63;;;2.30;;
47429;SDS011;33181;49.246;7.372;2023-08-06T14:47:19;3.33;;;2.00;;
47429;SDS011;33181;49.246;7.372;2023-08-06T14:49:44;3.77;;;2.23;;
47429;SDS011;33181;49.246;7.372;2023-08-06T14:52:10;3.50;;;2.30;;
47429;SDS011;33181;49.246;7.372;2023-08-06T14:54:36;3.53;;;2.83;;
47429;SDS011;33181;49.246;7.372;2023-08-06T14:57:02;3.57;;;2.13;;
47429;SDS011;33181;49.246;7.372;2023-08-06T14:59:28;3.03;;;2.47;;
47429;SDS011;33181;49.246;7.372;2023-08-06T15:01:54;3.20;;;2.50;;
47429;SDS011;33181;49.246;7.372;2023-08-06T15:04:19;6.03;;;2.70;;